createdAt,value
2018-03-31T00:02:20.466Z,59.13
2018-03-31T00:04:46.452Z,60.14
2018-03-31T00:07:12.390Z,59.62
2018-03-31T00:09:38.318Z,59.65
2018-03-31T00:12:04.255Z,59.21
2018-03-31T00:14:30.206Z,59.89
2018-03-31T00:16:56.130Z,59.46
2018-03-31T00:19:22.397Z,60.22
2018-03-31T00:21:48.346Z,59.98
2018-03-31T00:24:14.288Z,60.50
2018-03-31T00:26:40.210Z,60.01
2018-03-31T00:29:06.127Z,60.04
2018-03-31T00:31:32.074Z,60.82
2018-03-31T00:33:58.014Z,60.52
2018-03-31T00:36:24.060Z,60.18
2018-03-31T00:38:49.987Z,60.62
2018-03-31T00:41:16.148Z,60.05
2018-03-31T00:43:42.097Z,60.37
2018-03-31T00:46:08.031Z,60.25
2018-03-31T00:48:33.942Z,60.68
2018-03-31T00:50:59.856Z,61.20
2018-03-31T00:53:25.821Z,60.32
2018-03-31T00:55:51.756Z,58.29
2018-03-31T00:58:17.709Z,60.00
2018-03-31T01:00:43.622Z,59.80
2018-03-31T01:03:09.599Z,60.66
2018-03-31T01:05:35.544Z,60.93
2018-03-31T01:08:01.518Z,60.46
2018-03-31T01:10:27.471Z,61.03
2018-03-31T01:12:53.423Z,60.66
2018-03-31T01:15:19.361Z,60.35
2018-03-31T01:17:45.583Z,61.26
2018-03-31T01:20:11.523Z,60.94
2018-03-31T01:22:37.442Z,60.91
2018-03-31T01:25:03.395Z,60.70
2018-03-31T01:27:29.343Z,60.72
2018-03-31T01:29:55.293Z,59.18
2018-03-31T01:32:21.229Z,59.27
2018-03-31T01:34:47.193Z,60.16
2018-03-31T01:37:13.132Z,58.53
2018-03-31T01:39:39.073Z,60.08
2018-03-31T01:42:05.013Z,58.87
2018-03-31T01:44:30.932Z,60.08
2018-03-31T01:46:56.891Z,60.37
2018-03-31T01:49:22.833Z,60.96
2018-03-31T01:51:48.785Z,61.59
2018-03-31T01:54:14.744Z,61.77
2018-03-31T01:56:40.714Z,61.93
2018-03-31T01:59:06.690Z,60.05
2018-03-31T02:01:32.646Z,59.40
2018-03-31T02:03:58.586Z,59.80
2018-03-31T02:06:24.529Z,60.94
2018-03-31T02:08:50.447Z,60.88
2018-03-31T02:11:16.426Z,60.90
2018-03-31T02:13:42.381Z,59.08
2018-03-31T02:16:08.361Z,59.69
2018-03-31T02:18:34.287Z,61.47
2018-03-31T02:21:00.238Z,61.79
2018-03-31T02:23:26.166Z,62.22
2018-03-31T02:25:52.138Z,61.67
2018-03-31T02:28:18.058Z,61.42
2018-03-31T02:30:44.143Z,62.26
2018-03-31T02:33:10.063Z,62.42
2018-03-31T02:35:36.009Z,61.53
2018-03-31T02:38:01.952Z,59.36
2018-03-31T02:40:27.971Z,58.39
2018-03-31T02:42:53.910Z,60.91
2018-03-31T02:45:19.887Z,62.13
2018-03-31T02:47:45.830Z,62.62
2018-03-31T02:50:11.867Z,59.94
2018-03-31T02:52:37.795Z,60.49
2018-03-31T02:55:03.741Z,59.93
2018-03-31T02:57:29.671Z,58.63
2018-03-31T02:59:55.756Z,58.91
2018-03-31T03:02:21.695Z,59.70
2018-03-31T03:04:47.626Z,62.45
2018-03-31T03:07:13.587Z,60.76
2018-03-31T03:09:39.508Z,61.70
2018-03-31T03:12:05.462Z,63.00
2018-03-31T03:14:31.408Z,63.76
2018-03-31T03:16:57.384Z,61.19
2018-03-31T03:19:23.326Z,60.82
2018-03-31T03:21:49.673Z,62.39
2018-03-31T03:24:15.695Z,64.16
2018-03-31T03:26:41.616Z,64.76
2018-03-31T03:29:07.557Z,64.28
2018-03-31T03:31:33.483Z,63.40
2018-03-31T03:33:59.763Z,65.21
2018-03-31T03:36:25.731Z,65.00
2018-03-31T03:38:51.651Z,64.73
2018-03-31T03:41:17.578Z,65.20
2018-03-31T03:43:43.520Z,63.84
2018-03-31T03:46:09.455Z,63.25
2018-03-31T03:48:35.677Z,64.44
2018-03-31T03:51:01.623Z,66.62
2018-03-31T03:53:27.555Z,66.05
2018-03-31T03:55:53.498Z,66.11
2018-03-31T03:58:19.443Z,66.34
2018-03-31T04:00:45.374Z,65.99
2018-03-31T04:03:11.312Z,66.79
2018-03-31T04:05:37.259Z,66.98
2018-03-31T04:08:03.205Z,67.34
2018-03-31T04:10:29.128Z,67.09
2018-03-31T04:12:55.065Z,66.68
2018-03-31T04:15:21.013Z,66.43
2018-03-31T04:17:46.965Z,66.70
2018-03-31T04:20:13.000Z,66.67
2018-03-31T04:22:38.937Z,67.13
2018-03-31T04:25:04.876Z,67.28
2018-03-31T04:27:30.828Z,66.98
2018-03-31T04:29:56.749Z,66.96
2018-03-31T04:32:22.697Z,67.36
2018-03-31T04:34:48.635Z,67.03
2018-03-31T04:37:14.611Z,65.73
2018-03-31T04:39:40.549Z,65.33
2018-03-31T04:42:06.497Z,66.15
2018-03-31T04:44:32.448Z,66.61
2018-03-31T04:46:58.375Z,67.28
2018-03-31T04:49:24.302Z,66.98
2018-03-31T04:51:50.221Z,66.15
2018-03-31T04:54:16.156Z,66.04
2018-03-31T04:56:42.097Z,65.59
2018-03-31T04:59:08.015Z,66.14
2018-03-31T05:01:33.963Z,65.83
2018-03-31T05:03:59.989Z,65.62
2018-03-31T05:06:25.913Z,66.58
2018-03-31T05:08:51.834Z,66.14
2018-03-31T05:11:17.763Z,65.73
2018-03-31T05:13:43.721Z,65.88
2018-03-31T05:16:09.682Z,65.66
2018-03-31T05:18:35.631Z,65.38
2018-03-31T05:21:01.663Z,65.44
2018-03-31T05:23:27.617Z,65.36
2018-03-31T05:25:53.584Z,65.73
2018-03-31T05:28:19.514Z,65.67
2018-03-31T05:30:45.457Z,65.13
2018-03-31T05:33:11.409Z,65.42
2018-03-31T05:35:37.377Z,65.20
2018-03-31T05:38:03.305Z,65.08
2018-03-31T05:40:29.255Z,64.67
2018-03-31T05:42:55.187Z,64.37
2018-03-31T05:45:21.263Z,65.07
2018-03-31T05:47:47.193Z,67.08
2018-03-31T05:50:13.110Z,64.93
2018-03-31T05:52:39.048Z,64.42
2018-03-31T05:55:04.986Z,66.29
2018-03-31T05:57:30.920Z,64.64
2018-03-31T05:59:56.862Z,63.71
2018-03-31T06:02:22.818Z,63.47
2018-03-31T06:04:48.738Z,62.58
2018-03-31T06:07:14.757Z,63.54
2018-03-31T06:09:40.712Z,62.93
2018-03-31T06:12:06.658Z,63.72
2018-03-31T06:14:32.590Z,62.83
2018-03-31T06:16:58.562Z,63.51
2018-03-31T06:19:24.482Z,62.42
2018-03-31T06:21:50.606Z,62.78
2018-03-31T06:24:16.540Z,62.22
2018-03-31T06:26:42.467Z,61.20
2018-03-31T06:29:08.396Z,61.39
2018-03-31T06:31:34.305Z,61.49
2018-03-31T06:34:00.608Z,62.03
2018-03-31T06:36:26.534Z,61.88
2018-03-31T06:38:52.476Z,61.91
2018-03-31T06:41:18.450Z,60.77
2018-03-31T06:43:44.385Z,59.54
2018-03-31T06:46:10.365Z,59.98
2018-03-31T06:48:36.310Z,60.77
2018-03-31T06:51:02.286Z,60.66
2018-03-31T06:53:28.199Z,60.35
2018-03-31T06:55:54.172Z,59.76
2018-03-31T06:58:20.116Z,60.39
2018-03-31T07:00:46.192Z,60.46
2018-03-31T07:03:12.154Z,60.77
2018-03-31T07:05:38.107Z,59.62
2018-03-31T07:08:04.038Z,59.75
2018-03-31T07:10:30.090Z,60.11
2018-03-31T07:12:56.014Z,59.85
2018-03-31T07:15:21.939Z,58.95
2018-03-31T07:17:47.868Z,58.92
2018-03-31T07:20:13.818Z,60.17
2018-03-31T07:22:39.796Z,59.66
2018-03-31T07:25:05.718Z,59.73
2018-03-31T07:27:31.855Z,60.25
2018-03-31T07:29:57.800Z,60.42
2018-03-31T07:32:23.751Z,60.09
2018-03-31T07:34:49.692Z,60.44
2018-03-31T07:37:16.037Z,60.32
2018-03-31T07:39:41.971Z,59.42
2018-03-31T07:42:07.921Z,60.16
2018-03-31T07:44:33.865Z,60.10
2018-03-31T07:46:59.822Z,59.63
2018-03-31T07:49:25.760Z,59.76
2018-03-31T07:51:51.738Z,59.14
2018-03-31T07:54:17.696Z,60.03
2018-03-31T07:56:43.626Z,59.74
2018-03-31T07:59:09.599Z,59.47
2018-03-31T08:01:35.537Z,59.75
2018-03-31T08:04:01.481Z,59.67
2018-03-31T08:06:27.401Z,60.23
2018-03-31T08:08:53.608Z,59.41
2018-03-31T08:11:19.561Z,59.43
2018-03-31T08:13:45.507Z,59.24
2018-03-31T08:16:11.456Z,58.76
2018-03-31T08:18:37.386Z,59.48
2018-03-31T08:21:03.352Z,59.11
2018-03-31T08:23:29.307Z,58.73
2018-03-31T08:25:55.251Z,57.92
2018-03-31T08:28:21.225Z,58.27
2018-03-31T08:30:47.183Z,58.06
2018-03-31T08:33:13.120Z,57.92
2018-03-31T08:35:39.053Z,58.02
2018-03-31T08:38:04.967Z,56.97
2018-03-31T08:40:30.913Z,56.86
2018-03-31T08:42:56.876Z,56.67
2018-03-31T08:45:22.799Z,56.55
2018-03-31T08:47:48.728Z,56.33
2018-03-31T08:50:14.669Z,55.81
2018-03-31T08:52:40.896Z,56.17
2018-03-31T08:55:06.819Z,56.06
2018-03-31T08:57:32.743Z,56.24
2018-03-31T08:59:58.681Z,56.78
2018-03-31T09:02:24.603Z,55.81
2018-03-31T09:04:50.555Z,56.37
2018-03-31T09:07:16.508Z,55.68
2018-03-31T09:09:42.456Z,56.17
2018-03-31T09:12:08.403Z,56.13
2018-03-31T09:14:34.349Z,56.74
2018-03-31T09:17:00.278Z,56.48
2018-03-31T09:19:26.199Z,56.78
2018-03-31T09:21:52.471Z,56.55
2018-03-31T09:24:18.399Z,56.42
2018-03-31T09:26:44.333Z,56.13
2018-03-31T09:29:10.277Z,57.15
2018-03-31T09:31:36.221Z,56.81
2018-03-31T09:34:02.333Z,57.43
2018-03-31T09:36:28.281Z,57.37
2018-03-31T09:38:54.262Z,56.86
2018-03-31T09:41:20.193Z,56.80
2018-03-31T09:43:46.197Z,57.02
2018-03-31T09:46:12.143Z,57.28
2018-03-31T09:48:38.099Z,57.56
2018-03-31T09:51:04.045Z,57.60
2018-03-31T09:53:29.971Z,57.21
2018-03-31T09:55:55.921Z,57.25
2018-03-31T09:58:21.863Z,57.57
2018-03-31T10:00:47.851Z,57.39
2018-03-31T10:03:13.785Z,57.28
2018-03-31T10:05:39.726Z,56.57
2018-03-31T10:08:05.648Z,56.94
2018-03-31T10:10:31.589Z,56.95
2018-03-31T10:12:57.537Z,56.53
2018-03-31T10:15:23.457Z,56.08
2018-03-31T10:17:49.402Z,55.76
2018-03-31T10:20:15.328Z,55.21
2018-03-31T10:22:41.283Z,56.40
2018-03-31T10:25:07.200Z,56.11
2018-03-31T10:27:33.137Z,55.43
2018-03-31T10:29:59.064Z,56.14
2018-03-31T10:32:25.061Z,55.94
2018-03-31T10:34:50.993Z,55.89
2018-03-31T10:37:16.917Z,56.01
2018-03-31T10:39:42.854Z,56.70
2018-03-31T10:42:08.783Z,57.13
2018-03-31T10:44:34.755Z,56.59
2018-03-31T10:47:00.682Z,56.44
2018-03-31T10:49:26.626Z,56.67
2018-03-31T10:51:52.558Z,56.92
2018-03-31T10:54:18.532Z,56.61
2018-03-31T10:56:44.466Z,56.90
2018-03-31T10:59:10.410Z,56.98
2018-03-31T11:01:36.362Z,56.93
2018-03-31T11:04:02.317Z,57.17
2018-03-31T11:06:28.238Z,57.03
2018-03-31T11:08:54.276Z,57.31
2018-03-31T11:11:20.294Z,57.57
2018-03-31T11:13:46.222Z,57.63
2018-03-31T11:16:12.328Z,57.66
2018-03-31T11:18:38.257Z,57.53
2018-03-31T11:21:04.198Z,57.37
2018-03-31T11:23:30.150Z,57.25
2018-03-31T11:25:56.080Z,57.32
2018-03-31T11:28:22.038Z,58.23
2018-03-31T11:30:47.958Z,57.91
2018-03-31T11:33:13.910Z,57.99
2018-03-31T11:35:39.967Z,58.62
2018-03-31T11:38:05.860Z,58.71
2018-03-31T11:40:31.800Z,59.13
2018-03-31T11:42:57.770Z,60.03
2018-03-31T11:45:24.004Z,59.86
2018-03-31T11:47:49.946Z,60.02
2018-03-31T11:50:15.890Z,59.47
2018-03-31T11:52:41.828Z,60.32
2018-03-31T11:55:07.746Z,59.99
2018-03-31T11:57:33.670Z,60.57
2018-03-31T11:59:59.614Z,60.69
2018-03-31T12:02:25.764Z,60.43
2018-03-31T12:04:51.681Z,61.05
2018-03-31T12:07:17.608Z,61.76
2018-03-31T12:09:43.546Z,60.82
2018-03-31T12:12:09.485Z,61.46
2018-03-31T12:14:35.493Z,61.61
2018-03-31T12:17:01.818Z,62.34
2018-03-31T12:19:27.772Z,62.17
2018-03-31T12:21:53.697Z,62.44
2018-03-31T12:24:19.627Z,62.49
2018-03-31T12:26:45.549Z,62.38
2018-03-31T12:29:11.490Z,62.08
2018-03-31T12:31:37.407Z,63.03
2018-03-31T12:34:03.338Z,63.60
2018-03-31T12:36:29.309Z,63.18
2018-03-31T12:38:55.226Z,64.04
2018-03-31T12:41:21.161Z,64.01
2018-03-31T12:43:47.096Z,63.36
2018-03-31T12:46:13.374Z,61.77
2018-03-31T12:48:39.299Z,62.28
2018-03-31T12:51:05.244Z,62.29
2018-03-31T12:53:31.167Z,62.60
2018-03-31T12:55:57.087Z,62.29
2018-03-31T12:58:23.005Z,61.52
2018-03-31T13:00:48.951Z,61.73
2018-03-31T13:03:14.871Z,61.76
2018-03-31T13:05:40.807Z,62.14
2018-03-31T13:08:06.737Z,62.12
2018-03-31T13:10:32.659Z,61.92
2018-03-31T13:12:58.664Z,62.58
2018-03-31T13:15:24.605Z,61.60
2018-03-31T13:17:50.545Z,62.09
2018-03-31T13:20:16.477Z,61.92
2018-03-31T13:22:42.413Z,62.46
2018-03-31T13:25:08.357Z,62.66
2018-03-31T13:27:34.302Z,63.22
2018-03-31T13:30:00.241Z,63.74
2018-03-31T13:32:26.190Z,63.91
2018-03-31T13:34:52.191Z,62.35
2018-03-31T13:37:18.157Z,63.42
2018-03-31T13:39:44.118Z,62.13
2018-03-31T13:42:10.071Z,62.97
2018-03-31T13:44:36.052Z,62.79
2018-03-31T13:47:01.997Z,63.10
2018-03-31T13:49:27.942Z,62.58
2018-03-31T13:51:53.910Z,62.58
2018-03-31T13:54:19.845Z,62.45
2018-03-31T13:56:45.848Z,62.62
2018-03-31T13:59:11.760Z,62.36
2018-03-31T14:01:37.740Z,61.92
2018-03-31T14:04:03.677Z,61.09
2018-03-31T14:06:29.614Z,61.51
2018-03-31T14:08:55.588Z,64.01
2018-03-31T14:11:21.559Z,61.14
2018-03-31T14:13:47.557Z,60.65
2018-03-31T14:16:13.542Z,60.70
2018-03-31T14:18:39.486Z,59.78
2018-03-31T14:21:05.458Z,60.11
2018-03-31T14:23:31.403Z,60.06
2018-03-31T14:25:57.389Z,60.05
2018-03-31T14:28:23.370Z,59.59
2018-03-31T14:30:49.343Z,59.00
2018-03-31T14:33:15.379Z,59.19
2018-03-31T14:35:41.318Z,58.97
2018-03-31T14:38:08.392Z,59.13
2018-03-31T14:40:34.338Z,59.42
2018-03-31T14:43:00.382Z,59.17
2018-03-31T14:45:26.319Z,59.24
2018-03-31T14:47:52.346Z,59.23
2018-03-31T14:50:18.312Z,59.44
2018-03-31T14:52:44.280Z,59.92
2018-03-31T14:55:10.212Z,60.05
2018-03-31T14:57:36.522Z,60.05
2018-03-31T15:00:02.467Z,60.56
2018-03-31T15:02:28.456Z,60.10
2018-03-31T15:04:54.406Z,62.25
2018-03-31T15:07:20.351Z,59.57
2018-03-31T15:09:46.303Z,60.12
2018-03-31T15:12:12.246Z,59.43
2018-03-31T15:14:38.246Z,59.58
2018-03-31T15:17:04.193Z,59.45
2018-03-31T15:19:30.232Z,59.86
2018-03-31T15:21:56.179Z,60.05
2018-03-31T15:24:22.199Z,60.08
2018-03-31T15:26:48.151Z,59.43
2018-03-31T15:29:14.218Z,59.83
2018-03-31T15:31:40.155Z,59.39
2018-03-31T15:34:06.159Z,60.24
2018-03-31T15:36:32.096Z,59.96
2018-03-31T15:38:58.132Z,60.13
2018-03-31T15:41:24.117Z,59.89
2018-03-31T15:43:50.070Z,59.63
2018-03-31T15:46:16.045Z,59.26
2018-03-31T15:48:42.020Z,59.69
2018-03-31T15:51:08.115Z,59.83
2018-03-31T15:53:34.059Z,59.53
2018-03-31T15:56:00.027Z,59.00
2018-03-31T15:58:25.946Z,59.42
2018-03-31T16:00:51.887Z,59.28
2018-03-31T16:03:17.983Z,58.95
2018-03-31T16:05:43.917Z,58.95
2018-03-31T16:08:09.899Z,61.13
2018-03-31T16:10:35.842Z,60.26
2018-03-31T16:13:01.846Z,59.77
2018-03-31T16:15:27.780Z,61.82
2018-03-31T16:17:53.741Z,59.72
2018-03-31T16:20:19.667Z,60.12
2018-03-31T16:22:45.659Z,57.58
2018-03-31T16:25:11.608Z,57.10
2018-03-31T16:27:37.793Z,53.25
2018-03-31T16:30:03.749Z,53.53
2018-03-31T16:32:29.753Z,53.08
2018-03-31T16:34:55.694Z,53.11
2018-03-31T16:37:21.735Z,52.58
2018-03-31T16:39:47.684Z,52.60
2018-03-31T16:42:13.643Z,53.05
2018-03-31T16:44:39.626Z,52.78
2018-03-31T16:47:05.561Z,52.88
2018-03-31T16:49:31.535Z,52.55
2018-03-31T16:51:57.483Z,53.58
2018-03-31T16:54:23.555Z,53.93
2018-03-31T16:56:49.494Z,53.29
2018-03-31T16:59:15.479Z,52.69
2018-03-31T17:01:41.421Z,52.88
2018-03-31T17:04:07.446Z,52.88
2018-03-31T17:06:33.409Z,53.46
2018-03-31T17:08:59.374Z,53.72
2018-03-31T17:11:25.303Z,53.09
2018-03-31T17:13:51.283Z,52.95
2018-03-31T17:16:17.281Z,53.71
2018-03-31T17:18:43.307Z,52.66
2018-03-31T17:21:09.262Z,51.77
2018-03-31T17:23:35.242Z,51.93
2018-03-31T17:26:01.147Z,52.03
2018-03-31T17:28:27.083Z,52.12
2018-03-31T17:30:53.046Z,52.14
2018-03-31T17:33:19.011Z,52.54
2018-03-31T17:35:44.951Z,54.22
2018-03-31T17:38:10.879Z,52.37
2018-03-31T17:40:36.894Z,56.91
2018-03-31T17:43:02.850Z,57.56
2018-03-31T17:45:28.814Z,55.46
2018-03-31T17:47:54.750Z,57.50
2018-03-31T17:50:20.719Z,54.94
2018-03-31T17:52:46.664Z,54.62
2018-03-31T17:55:12.612Z,53.31
2018-03-31T17:57:38.535Z,54.27
2018-03-31T18:00:04.846Z,53.83
2018-03-31T18:02:30.781Z,54.50
2018-03-31T18:04:56.710Z,53.68
2018-03-31T18:07:22.650Z,53.22
2018-03-31T18:09:48.608Z,51.49
2018-03-31T18:12:14.582Z,51.54
2018-03-31T18:14:40.598Z,51.29
2018-03-31T18:17:06.578Z,52.00
2018-03-31T18:19:32.514Z,52.54
2018-03-31T18:21:58.680Z,51.91
2018-03-31T18:24:24.640Z,51.88
2018-03-31T18:26:50.594Z,52.36
2018-03-31T18:29:16.527Z,52.71
2018-03-31T18:31:42.553Z,52.46
2018-03-31T18:34:08.498Z,52.05
2018-03-31T18:36:34.454Z,52.50
2018-03-31T18:39:00.461Z,51.91
2018-03-31T18:41:26.398Z,52.21
2018-03-31T18:43:52.314Z,52.93
2018-03-31T18:46:18.262Z,53.54
2018-03-31T18:48:44.225Z,52.94
2018-03-31T18:51:10.172Z,53.91
2018-03-31T18:53:36.114Z,52.91
2018-03-31T18:56:02.085Z,53.36
2018-03-31T18:58:28.038Z,53.32
2018-03-31T19:00:53.963Z,53.08
2018-03-31T19:03:19.894Z,53.49
2018-03-31T19:05:45.828Z,53.02
2018-03-31T19:08:11.785Z,52.95
2018-03-31T19:10:37.768Z,53.03
2018-03-31T19:13:04.806Z,53.21
2018-03-31T19:15:30.759Z,53.65
2018-03-31T19:17:56.698Z,54.09
2018-03-31T19:20:22.628Z,53.23
2018-03-31T19:22:48.558Z,52.35
2018-03-31T19:25:14.486Z,53.04
2018-03-31T19:27:40.467Z,52.52
2018-03-31T19:30:06.379Z,52.36
2018-03-31T19:32:32.549Z,52.47
2018-03-31T19:34:58.514Z,52.18
2018-03-31T19:37:24.493Z,52.68
2018-03-31T19:39:50.579Z,52.29
2018-03-31T19:42:16.528Z,52.80
2018-03-31T19:44:42.554Z,52.65
2018-03-31T19:47:08.507Z,52.23
2018-03-31T19:49:34.477Z,52.68
2018-03-31T19:52:00.400Z,52.95
2018-03-31T19:54:26.623Z,53.46
2018-03-31T19:56:52.726Z,53.41
2018-03-31T19:59:18.654Z,53.06
2018-03-31T20:01:44.618Z,54.13
2018-03-31T20:04:10.561Z,54.93
2018-03-31T20:06:36.601Z,53.14
2018-03-31T20:09:02.527Z,53.63
2018-03-31T20:11:28.457Z,53.64
2018-03-31T20:13:54.429Z,54.17
2018-03-31T20:16:20.357Z,53.85
2018-03-31T20:18:46.611Z,53.75
2018-03-31T20:21:12.578Z,53.24
2018-03-31T20:23:38.510Z,54.26
2018-03-31T20:26:04.425Z,54.26
2018-03-31T20:28:30.410Z,58.52
2018-03-31T20:30:56.391Z,58.61
2018-03-31T20:33:22.361Z,58.02
2018-03-31T20:35:48.307Z,53.69
2018-03-31T20:38:14.247Z,53.20
2018-03-31T20:40:40.220Z,52.79
2018-03-31T20:43:06.181Z,53.15
2018-03-31T20:45:32.144Z,52.45
2018-03-31T20:47:58.513Z,52.65
2018-03-31T20:50:24.439Z,52.25
2018-03-31T20:52:50.379Z,52.32
2018-03-31T20:55:16.305Z,52.24
2018-03-31T20:57:42.250Z,51.98
2018-03-31T21:00:08.234Z,51.65
2018-03-31T21:02:34.142Z,51.06
2018-03-31T21:05:00.094Z,51.68
2018-03-31T21:07:26.087Z,51.41
2018-03-31T21:09:52.010Z,51.16
2018-03-31T21:12:18.274Z,51.10
2018-03-31T21:14:44.306Z,51.86
2018-03-31T21:17:10.234Z,51.05
2018-03-31T21:19:36.264Z,50.55
2018-03-31T21:22:02.219Z,50.57
2018-03-31T21:24:28.173Z,50.90
2018-03-31T21:26:54.095Z,51.06
2018-03-31T21:29:20.014Z,51.13
2018-03-31T21:31:45.937Z,51.09
2018-03-31T21:34:11.870Z,51.01
2018-03-31T21:36:37.812Z,51.26
2018-03-31T21:39:03.764Z,51.28
2018-03-31T21:41:29.681Z,50.68
2018-03-31T21:43:55.629Z,50.84
2018-03-31T21:46:21.576Z,50.78
2018-03-31T21:48:47.534Z,50.96
2018-03-31T21:51:13.518Z,51.59
2018-03-31T21:53:39.445Z,51.53
2018-03-31T21:56:05.390Z,50.34
2018-03-31T21:58:31.326Z,50.39
2018-03-31T22:00:57.254Z,50.78
2018-03-31T22:03:23.202Z,50.05
2018-03-31T22:05:49.154Z,49.69
2018-03-31T22:08:15.102Z,50.01
2018-03-31T22:10:41.014Z,49.30
2018-03-31T22:13:06.974Z,49.49
2018-03-31T22:15:32.906Z,49.20
2018-03-31T22:17:59.178Z,49.58
2018-03-31T22:20:25.120Z,49.01
2018-03-31T22:22:51.060Z,49.69
2018-03-31T22:25:16.986Z,49.39
2018-03-31T22:27:42.920Z,49.38
2018-03-31T22:30:08.880Z,48.87
2018-03-31T22:32:34.790Z,49.37
2018-03-31T22:35:00.746Z,49.38
2018-03-31T22:37:26.713Z,49.51
2018-03-31T22:39:52.646Z,49.69
2018-03-31T22:42:18.594Z,49.58
2018-03-31T22:44:44.514Z,49.91
2018-03-31T22:47:10.453Z,50.57
2018-03-31T22:49:36.419Z,50.90
2018-03-31T22:52:02.369Z,50.52
2018-03-31T22:54:28.298Z,50.82
2018-03-31T22:56:54.219Z,51.04
2018-03-31T22:59:20.493Z,50.18
2018-03-31T23:01:46.440Z,50.40
2018-03-31T23:04:12.388Z,50.78
2018-03-31T23:06:38.323Z,50.83
2018-03-31T23:09:04.242Z,51.00
2018-03-31T23:11:30.168Z,50.58
2018-03-31T23:13:56.130Z,50.05
2018-03-31T23:16:22.051Z,50.55
2018-03-31T23:18:48.027Z,49.97
2018-03-31T23:21:13.966Z,50.08
2018-03-31T23:23:39.923Z,49.65
2018-03-31T23:26:05.845Z,50.51
2018-03-31T23:28:31.777Z,49.89
2018-03-31T23:30:57.727Z,50.49
2018-03-31T23:33:23.682Z,50.64
2018-03-31T23:35:49.652Z,51.00
2018-03-31T23:38:15.583Z,51.16
2018-03-31T23:40:41.554Z,51.23
2018-03-31T23:43:07.497Z,51.13
2018-03-31T23:45:33.415Z,50.38
2018-03-31T23:47:59.359Z,50.09
2018-03-31T23:50:25.277Z,49.62
2018-03-31T23:52:51.219Z,49.13
2018-03-31T23:55:17.149Z,49.14
2018-03-31T23:57:43.071Z,49.70
